createdAt,value
2022-12-08T00:00:04.279Z,4.500000
2022-12-08T00:01:01.033Z,0.000000
2022-12-08T00:02:01.271Z,0.000000
2022-12-08T00:03:01.195Z,0.000000
2022-12-08T00:04:01.260Z,4.600000
2022-12-08T00:05:04.628Z,4.600000
2022-12-08T00:06:01.175Z,0.000000
2022-12-08T00:07:01.079Z,0.000000
2022-12-08T00:08:01.188Z,0.000000
2022-12-08T00:09:01.097Z,0.000000
2022-12-08T00:10:25.195Z,0.000000
2022-12-08T00:11:01.125Z,0.000000
2022-12-08T00:12:01.207Z,0.000000
2022-12-08T00:13:01.144Z,0.000000
2022-12-08T00:14:01.211Z,0.000000
2022-12-08T00:15:04.624Z,0.000000
2022-12-08T00:16:01.257Z,0.000000
2022-12-08T00:17:01.230Z,0.000000
2022-12-08T00:18:01.231Z,0.000000
2022-12-08T00:19:01.186Z,0.000000
2022-12-08T00:20:05.698Z,0.000000
2022-12-08T00:21:01.180Z,0.000000
2022-12-08T00:22:01.280Z,0.000000
2022-12-08T00:23:01.184Z,0.000000
2022-12-08T00:24:00.274Z,6.100000
2022-12-08T00:25:03.924Z,6.100000
2022-12-08T00:26:00.269Z,6.100000
2022-12-08T00:27:00.229Z,6.100000
2022-12-08T00:28:00.800Z,6.100000
2022-12-08T00:29:00.220Z,0.000000
2022-12-08T00:30:03.750Z,0.000000
2022-12-08T00:31:00.239Z,0.000000
2022-12-08T00:32:00.856Z,0.000000
2022-12-08T00:33:00.269Z,0.000000
2022-12-08T00:34:00.354Z,5.900000
2022-12-08T00:35:03.943Z,5.900000
2022-12-08T00:36:00.367Z,5.900000
2022-12-08T00:37:00.280Z,7.700000
2022-12-08T00:38:01.087Z,7.700000
2022-12-08T00:39:00.292Z,7.700000
2022-12-08T00:40:04.169Z,7.700000
2022-12-08T00:41:00.306Z,7.700000
2022-12-08T00:42:00.376Z,4.100000
2022-12-08T00:43:00.312Z,4.100000
2022-12-08T00:44:00.799Z,4.000000
2022-12-08T00:45:03.735Z,4.000000
2022-12-08T00:46:00.459Z,6.500000
2022-12-08T00:47:00.338Z,6.500000
2022-12-08T00:48:00.429Z,6.500000
2022-12-08T00:49:00.345Z,4.800000
2022-12-08T00:50:05.661Z,4.800000
2022-12-08T00:51:00.375Z,5.200000
2022-12-08T00:52:00.496Z,5.200000
2022-12-08T00:53:00.380Z,6.000000
2022-12-08T00:54:00.477Z,6.000000
2022-12-08T00:55:03.663Z,6.000000
2022-12-08T00:56:00.487Z,6.100000
2022-12-08T00:57:00.403Z,6.100000
2022-12-08T00:58:00.802Z,6.100000
2022-12-08T00:59:00.425Z,4.000000
2022-12-08T01:00:04.333Z,4.000000
2022-12-08T01:01:00.495Z,4.000000
2022-12-08T01:02:00.782Z,6.200000
2022-12-08T01:03:00.520Z,6.200000
2022-12-08T01:04:00.561Z,6.200000
2022-12-08T01:05:03.695Z,6.200000
2022-12-08T01:06:00.784Z,6.200000
2022-12-08T01:07:00.469Z,0.000000
2022-12-08T01:08:00.633Z,0.000000
2022-12-08T01:09:00.515Z,0.000000
2022-12-08T01:10:04.154Z,4.900000
2022-12-08T01:11:00.500Z,4.900000
2022-12-08T01:12:00.592Z,0.000000
2022-12-08T01:13:00.538Z,0.000000
2022-12-08T01:14:00.788Z,0.000000
2022-12-08T01:15:03.753Z,0.000000
2022-12-08T01:16:00.639Z,0.000000
2022-12-08T01:17:00.597Z,4.000000
2022-12-08T01:18:00.635Z,4.000000
2022-12-08T01:19:00.545Z,4.400000
2022-12-08T01:20:04.114Z,4.400000
2022-12-08T01:21:00.588Z,4.400000
2022-12-08T01:22:00.848Z,6.500000
2022-12-08T01:23:00.584Z,6.500000
2022-12-08T01:24:00.700Z,6.500000
2022-12-08T01:25:03.822Z,5.300000
2022-12-08T01:26:00.693Z,5.300000
2022-12-08T01:27:00.618Z,4.000000
2022-12-08T01:28:00.819Z,4.000000
2022-12-08T01:29:00.626Z,4.000000
2022-12-08T01:30:04.600Z,0.000000
2022-12-08T01:31:00.701Z,0.000000
2022-12-08T01:32:00.783Z,0.000000
2022-12-08T01:33:00.665Z,0.000000
2022-12-08T01:34:00.759Z,0.000000
2022-12-08T01:35:03.742Z,4.000000
2022-12-08T01:36:00.752Z,4.000000
2022-12-08T01:37:00.675Z,4.300000
2022-12-08T01:38:00.747Z,4.300000
2022-12-08T01:39:00.702Z,4.000000
2022-12-08T01:40:04.386Z,4.000000
2022-12-08T01:41:00.711Z,4.000000
2022-12-08T01:42:00.786Z,4.400000
2022-12-08T01:43:00.705Z,4.400000
2022-12-08T01:44:00.790Z,4.400000
2022-12-08T01:45:05.613Z,4.400000
2022-12-08T01:46:00.873Z,4.400000
2022-12-08T01:47:00.769Z,4.800000
2022-12-08T01:48:00.948Z,4.800000
2022-12-08T01:49:00.762Z,5.600000
2022-12-08T01:50:04.279Z,5.600000
2022-12-08T01:51:00.847Z,5.600000
2022-12-08T01:52:00.878Z,0.000000
2022-12-08T01:53:00.809Z,0.000000
2022-12-08T01:54:00.880Z,0.000000
2022-12-08T01:55:04.068Z,0.000000
2022-12-08T01:56:00.945Z,0.000000
2022-12-08T01:57:00.882Z,0.000000
2022-12-08T01:58:00.938Z,0.000000
2022-12-08T01:59:00.849Z,0.000000
2022-12-08T02:00:04.573Z,0.000000
2022-12-08T02:01:00.930Z,0.000000
2022-12-08T02:02:01.002Z,4.800000
2022-12-08T02:03:01.035Z,4.800000
2022-12-08T02:04:00.966Z,4.800000
2022-12-08T02:05:03.830Z,0.000000
2022-12-08T02:06:01.003Z,0.000000
2022-12-08T02:07:07.826Z,0.000000
2022-12-08T02:08:01.076Z,0.000000
2022-12-08T02:09:00.968Z,0.000000
2022-12-08T02:10:04.760Z,0.000000
2022-12-08T02:11:00.971Z,0.000000
2022-12-08T02:12:01.074Z,0.000000
2022-12-08T02:13:00.974Z,0.000000
2022-12-08T02:14:01.047Z,0.000000
2022-12-08T02:15:05.489Z,0.000000
2022-12-08T02:16:01.106Z,0.000000
2022-12-08T02:17:00.999Z,0.000000
2022-12-08T02:18:01.095Z,0.000000
2022-12-08T02:19:29.171Z,0.000000
2022-12-08T02:20:04.515Z,0.000000
2022-12-08T02:21:01.042Z,0.000000
2022-12-08T02:22:01.095Z,0.000000
2022-12-08T02:23:01.034Z,0.000000
2022-12-08T02:24:01.140Z,0.000000
2022-12-08T02:25:03.942Z,4.000000
2022-12-08T02:26:01.268Z,4.000000
2022-12-08T02:27:01.087Z,4.000000
2022-12-08T02:28:01.157Z,0.000000
2022-12-08T02:29:01.088Z,0.000000
2022-12-08T02:30:05.032Z,0.000000
2022-12-08T02:31:01.150Z,0.000000
2022-12-08T02:32:01.212Z,0.000000
2022-12-08T02:33:01.123Z,4.000000
2022-12-08T02:34:01.207Z,4.000000
2022-12-08T02:35:04.034Z,4.000000
2022-12-08T02:36:01.210Z,4.000000
2022-12-08T02:37:01.152Z,4.000000
2022-12-08T02:38:01.231Z,4.000000
2022-12-08T02:39:01.166Z,4.000000
2022-12-08T02:40:06.367Z,4.000000
2022-12-08T02:41:01.171Z,0.000000
2022-12-08T02:42:01.275Z,0.000000
2022-12-08T02:43:01.217Z,5.300000
2022-12-08T02:44:01.323Z,5.300000
2022-12-08T02:45:04.195Z,5.300000
2022-12-08T02:46:01.324Z,5.300000
2022-12-08T02:47:00.221Z,5.300000
2022-12-08T02:48:00.313Z,5.100000
2022-12-08T02:49:00.229Z,5.100000
2022-12-08T02:50:04.110Z,5.100000
2022-12-08T02:51:00.305Z,4.800000
2022-12-08T02:52:00.326Z,4.800000
2022-12-08T02:53:00.269Z,4.800000
2022-12-08T02:54:00.332Z,4.000000
2022-12-08T02:55:03.674Z,4.000000
2022-12-08T02:56:00.365Z,4.000000
2022-12-08T02:57:00.293Z,4.000000
2022-12-08T02:58:00.799Z,0.000000
2022-12-08T02:59:00.305Z,0.000000
2022-12-08T03:00:04.270Z,0.000000
2022-12-08T03:01:00.314Z,5.800000
2022-12-08T03:02:01.007Z,5.800000
2022-12-08T03:03:00.393Z,5.800000
2022-12-08T03:04:00.439Z,5.800000
2022-12-08T03:05:03.702Z,5.800000
2022-12-08T03:06:00.782Z,0.000000
2022-12-08T03:07:00.381Z,0.000000
2022-12-08T03:08:00.536Z,0.000000
2022-12-08T03:09:00.393Z,0.000000
2022-12-08T03:10:04.057Z,0.000000
2022-12-08T03:11:00.395Z,0.000000
2022-12-08T03:12:00.485Z,0.000000
2022-12-08T03:13:00.421Z,0.000000
2022-12-08T03:14:00.823Z,0.000000
2022-12-08T03:15:03.739Z,0.000000
2022-12-08T03:16:00.527Z,0.000000
2022-12-08T03:17:00.446Z,0.000000
2022-12-08T03:18:00.512Z,0.000000
2022-12-08T03:19:00.456Z,0.000000
2022-12-08T03:20:04.263Z,0.000000
2022-12-08T03:21:00.462Z,4.000000
2022-12-08T03:22:00.533Z,4.000000
2022-12-08T03:23:00.472Z,4.000000
2022-12-08T03:24:00.545Z,0.000000
2022-12-08T03:25:03.811Z,0.000000
2022-12-08T03:26:00.603Z,4.000000
2022-12-08T03:27:00.519Z,4.000000
2022-12-08T03:28:00.794Z,4.000000
2022-12-08T03:29:00.500Z,4.000000
2022-12-08T03:30:05.269Z,4.000000
2022-12-08T03:31:00.565Z,0.000000
2022-12-08T03:32:00.858Z,0.000000
2022-12-08T03:33:00.548Z,0.000000
2022-12-08T03:34:00.604Z,0.000000
2022-12-08T03:35:05.338Z,0.000000
2022-12-08T03:36:00.635Z,0.000000
2022-12-08T03:37:00.569Z,0.000000
2022-12-08T03:38:00.667Z,0.000000
2022-12-08T03:39:00.576Z,0.000000
2022-12-08T03:40:04.097Z,0.000000
2022-12-08T03:41:00.585Z,0.000000
2022-12-08T03:42:00.676Z,0.000000
2022-12-08T03:43:00.608Z,4.500000
2022-12-08T03:44:00.836Z,4.500000
2022-12-08T03:45:03.743Z,4.500000
2022-12-08T03:46:00.765Z,0.000000
2022-12-08T03:47:00.615Z,0.000000
2022-12-08T03:48:00.714Z,0.000000
2022-12-08T03:49:00.654Z,0.000000
2022-12-08T03:50:04.341Z,0.000000
2022-12-08T03:51:00.672Z,0.000000
2022-12-08T03:52:00.713Z,0.000000
2022-12-08T03:53:00.679Z,0.000000
2022-12-08T03:54:00.776Z,0.000000
2022-12-08T03:55:03.653Z,0.000000
2022-12-08T03:56:00.796Z,0.000000
2022-12-08T03:57:00.695Z,0.000000
2022-12-08T03:58:00.804Z,0.000000
2022-12-08T03:59:00.742Z,0.000000
2022-12-08T04:00:04.559Z,0.000000
2022-12-08T04:01:00.776Z,5.400000
2022-12-08T04:02:01.044Z,5.400000
2022-12-08T04:03:00.837Z,5.500000
2022-12-08T04:04:00.869Z,5.500000
2022-12-08T04:05:04.282Z,5.500000
2022-12-08T04:06:00.860Z,0.000000
2022-12-08T04:07:00.801Z,0.000000
2022-12-08T04:08:00.940Z,0.000000
2022-12-08T04:09:00.820Z,4.000000
2022-12-08T04:10:04.541Z,4.000000
2022-12-08T04:11:00.816Z,4.000000
2022-12-08T04:12:02.110Z,0.000000
2022-12-08T04:13:00.843Z,0.000000
2022-12-08T04:14:00.949Z,0.000000
2022-12-08T04:15:03.850Z,0.000000
2022-12-08T04:16:00.983Z,0.000000
2022-12-08T04:17:00.863Z,0.000000
2022-12-08T04:18:00.977Z,0.000000
2022-12-08T04:19:00.875Z,0.000000
2022-12-08T04:20:04.742Z,0.000000
2022-12-08T04:21:00.907Z,0.000000
2022-12-08T04:22:00.986Z,6.600000
2022-12-08T04:23:00.923Z,6.600000
2022-12-08T04:24:01.597Z,0.000000
2022-12-08T04:25:03.927Z,0.000000
2022-12-08T04:26:02.131Z,4.900000
2022-12-08T04:27:00.956Z,4.900000
2022-12-08T04:28:01.012Z,4.900000
2022-12-08T04:29:00.947Z,5.200000
2022-12-08T04:30:07.400Z,5.200000
2022-12-08T04:31:00.990Z,5.200000
2022-12-08T04:32:01.104Z,0.000000
2022-12-08T04:33:00.990Z,0.000000
2022-12-08T04:34:01.078Z,0.000000
2022-12-08T04:35:03.997Z,4.400000
2022-12-08T04:36:01.094Z,0.000000
2022-12-08T04:37:01.014Z,5.400000
2022-12-08T04:38:01.127Z,5.400000
2022-12-08T04:39:01.030Z,5.400000
2022-12-08T04:40:04.771Z,5.400000
2022-12-08T04:41:01.039Z,5.400000
2022-12-08T04:42:01.130Z,7.600000
2022-12-08T04:43:01.047Z,7.600000
2022-12-08T04:44:02.123Z,8.500000
2022-12-08T04:45:03.978Z,8.500000
2022-12-08T04:46:01.154Z,8.500000
2022-12-08T04:47:01.118Z,8.500000
2022-12-08T04:48:01.172Z,8.500000
2022-12-08T04:49:01.126Z,8.500000
2022-12-08T04:50:04.680Z,8.500000
2022-12-08T04:51:01.142Z,8.500000
2022-12-08T04:52:01.220Z,6.400000
2022-12-08T04:53:01.127Z,6.400000
2022-12-08T04:54:01.232Z,6.400000
2022-12-08T04:55:04.359Z,4.000000
2022-12-08T04:56:01.289Z,4.000000
2022-12-08T04:57:01.179Z,0.000000
2022-12-08T04:58:02.082Z,0.000000
2022-12-08T04:59:01.180Z,0.000000
2022-12-08T05:00:06.239Z,0.000000
2022-12-08T05:01:01.263Z,0.000000
2022-12-08T05:02:01.404Z,0.000000
2022-12-08T05:03:01.309Z,0.000000
2022-12-08T05:04:01.588Z,0.000000
2022-12-08T05:05:04.371Z,0.000000
2022-12-08T05:06:00.480Z,0.000000
2022-12-08T05:07:00.248Z,0.000000
2022-12-08T05:08:00.408Z,0.000000
2022-12-08T05:09:00.273Z,0.000000
2022-12-08T05:10:04.250Z,0.000000
2022-12-08T05:11:00.277Z,0.000000
2022-12-08T05:12:00.376Z,0.000000
2022-12-08T05:13:00.308Z,0.000000
2022-12-08T05:14:00.471Z,0.000000
2022-12-08T05:15:03.734Z,0.000000
2022-12-08T05:16:00.492Z,0.000000
2022-12-08T05:17:04.883Z,0.000000
2022-12-08T05:18:00.425Z,0.000000
2022-12-08T05:19:00.339Z,0.000000
2022-12-08T05:20:04.127Z,0.000000
2022-12-08T05:21:00.361Z,0.000000
2022-12-08T05:22:00.440Z,4.900000
2022-12-08T05:23:00.373Z,4.900000
2022-12-08T05:24:00.449Z,4.900000
2022-12-08T05:25:05.109Z,4.900000
2022-12-08T05:26:00.472Z,4.900000
2022-12-08T05:27:00.410Z,4.900000
2022-12-08T05:28:24.662Z,16.500000
2022-12-08T05:29:00.423Z,16.500000
2022-12-08T05:30:04.382Z,16.500000
2022-12-08T05:31:00.489Z,16.500000
2022-12-08T05:32:00.618Z,12.500000
2022-12-08T05:33:00.470Z,12.500000
2022-12-08T05:34:03.177Z,12.500000
2022-12-08T05:35:03.802Z,7.300000
2022-12-08T05:36:00.568Z,7.300000
2022-12-08T05:37:00.532Z,0.000000
2022-12-08T05:38:00.592Z,0.000000
2022-12-08T05:39:00.505Z,0.000000
2022-12-08T05:40:04.386Z,4.600000
2022-12-08T05:41:00.499Z,4.600000
2022-12-08T05:42:00.611Z,9.200000
2022-12-08T05:43:00.558Z,9.200000
2022-12-08T05:44:02.088Z,9.200000
2022-12-08T05:45:03.793Z,9.200000
2022-12-08T05:46:00.696Z,9.200000
2022-12-08T05:47:00.540Z,5.500000
2022-12-08T05:48:00.639Z,5.500000
2022-12-08T05:49:00.572Z,5.500000
2022-12-08T05:50:05.319Z,7.600000
2022-12-08T05:51:00.599Z,7.600000
2022-12-08T05:52:00.644Z,7.600000
2022-12-08T05:53:00.602Z,7.600000
2022-12-08T05:54:00.696Z,7.600000
2022-12-08T05:55:03.787Z,4.600000
2022-12-08T05:56:00.673Z,4.600000
2022-12-08T05:57:00.619Z,4.600000
2022-12-08T05:58:07.490Z,4.600000
2022-12-08T05:59:00.636Z,4.600000
2022-12-08T06:00:08.366Z,4.700000
2022-12-08T06:01:00.697Z,4.700000
2022-12-08T06:02:00.924Z,4.700000
2022-12-08T06:03:00.849Z,7.000000
2022-12-08T06:04:00.794Z,7.000000
2022-12-08T06:05:03.896Z,7.000000
2022-12-08T06:06:00.840Z,7.000000
2022-12-08T06:07:00.731Z,7.000000
2022-12-08T06:08:00.901Z,5.900000
2022-12-08T06:09:00.756Z,5.900000
2022-12-08T06:10:04.581Z,4.000000
2022-12-08T06:11:00.771Z,4.000000
2022-12-08T06:12:02.151Z,4.000000
2022-12-08T06:13:00.790Z,0.000000
2022-12-08T06:14:00.826Z,0.000000
2022-12-08T06:15:03.805Z,5.800000
2022-12-08T06:16:00.883Z,5.800000
2022-12-08T06:17:00.859Z,5.800000
2022-12-08T06:18:00.924Z,5.800000
2022-12-08T06:19:00.812Z,5.800000
2022-12-08T06:20:06.520Z,5.800000
2022-12-08T06:21:00.864Z,5.300000
2022-12-08T06:22:00.907Z,5.300000
2022-12-08T06:23:00.864Z,6.900000
2022-12-08T06:24:00.969Z,6.900000
2022-12-08T06:25:07.212Z,6.900000
2022-12-08T06:26:02.203Z,6.900000
2022-12-08T06:27:00.905Z,6.900000
2022-12-08T06:28:01.078Z,5.100000
2022-12-08T06:29:00.905Z,5.100000
2022-12-08T06:30:07.429Z,5.100000
2022-12-08T06:31:00.904Z,8.900000
2022-12-08T06:32:01.082Z,8.900000
2022-12-08T06:33:00.928Z,8.900000
2022-12-08T06:34:00.991Z,8.900000
2022-12-08T06:35:05.225Z,8.900000
2022-12-08T06:36:01.025Z,8.600000
2022-12-08T06:37:00.938Z,8.600000
2022-12-08T06:38:01.032Z,8.600000
2022-12-08T06:39:00.943Z,8.600000
2022-12-08T06:40:04.623Z,8.600000
2022-12-08T06:41:00.974Z,5.800000
2022-12-08T06:42:02.296Z,5.800000
2022-12-08T06:43:00.332Z,5.800000
2022-12-08T06:44:00.413Z,8.700000
2022-12-08T06:45:03.752Z,8.700000
2022-12-08T06:46:00.520Z,8.700000
2022-12-08T06:47:00.343Z,8.700000
2022-12-08T06:48:00.495Z,4.000000
2022-12-08T06:49:00.382Z,4.000000
2022-12-08T06:50:04.085Z,5.200000
2022-12-08T06:51:00.421Z,5.200000
2022-12-08T06:52:00.473Z,5.200000
2022-12-08T06:53:05.145Z,7.200000
2022-12-08T06:54:00.534Z,7.200000
2022-12-08T06:55:03.817Z,7.200000
2022-12-08T06:56:00.489Z,8.400000
2022-12-08T06:57:00.436Z,8.400000
2022-12-08T06:58:00.532Z,13.000000
2022-12-08T06:59:00.429Z,13.000000
2022-12-08T07:00:04.296Z,13.000000
2022-12-08T07:01:00.542Z,13.000000
2022-12-08T07:02:00.592Z,13.000000
2022-12-08T07:03:00.554Z,10.200000
2022-12-08T07:04:00.564Z,10.200000
2022-12-08T07:05:03.726Z,10.200000
2022-12-08T07:06:04.357Z,10.200000
2022-12-08T07:07:00.521Z,10.200000
2022-12-08T07:08:00.643Z,6.100000
2022-12-08T07:09:00.534Z,6.100000
2022-12-08T07:10:05.244Z,6.100000
2022-12-08T07:11:00.522Z,7.500000
2022-12-08T07:12:00.618Z,7.500000
2022-12-08T07:13:00.561Z,7.500000
2022-12-08T07:14:00.626Z,8.000000
2022-12-08T07:15:05.308Z,8.000000
2022-12-08T07:16:00.635Z,9.400000
2022-12-08T07:17:00.603Z,9.400000
2022-12-08T07:18:00.840Z,9.400000
2022-12-08T07:19:00.600Z,9.400000
2022-12-08T07:20:04.277Z,9.400000
2022-12-08T07:21:00.642Z,10.900000
2022-12-08T07:22:00.788Z,10.900000
2022-12-08T07:23:00.609Z,10.900000
2022-12-08T07:24:02.097Z,10.900000
2022-12-08T07:25:03.788Z,10.900000
2022-12-08T07:26:00.689Z,7.800000
2022-12-08T07:27:00.661Z,7.800000
2022-12-08T07:28:00.703Z,7.800000
2022-12-08T07:29:00.636Z,12.300000
2022-12-08T07:30:04.400Z,12.300000
2022-12-08T07:31:00.728Z,12.300000
2022-12-08T07:32:00.740Z,12.600000
2022-12-08T07:33:00.708Z,12.600000
2022-12-08T07:34:00.742Z,12.600000
2022-12-08T07:35:03.786Z,12.600000
2022-12-08T07:36:00.761Z,12.600000
2022-12-08T07:37:00.691Z,9.300000
2022-12-08T07:38:00.758Z,9.300000
2022-12-08T07:39:00.723Z,9.300000
2022-12-08T07:40:04.502Z,9.300000
2022-12-08T07:41:01.038Z,9.300000
2022-12-08T07:42:00.565Z,10.100000
2022-12-08T07:43:00.569Z,10.100000
2022-12-08T07:44:02.157Z,10.100000
2022-12-08T07:45:00.729Z,10.100000
2022-12-08T07:46:01.213Z,10.000000
2022-12-08T07:47:01.094Z,10.000000
2022-12-08T07:48:01.174Z,10.000000
2022-12-08T07:49:01.117Z,10.000000
2022-12-08T07:50:05.090Z,10.000000
2022-12-08T07:51:01.135Z,10.000000
2022-12-08T07:52:01.193Z,10.700000
2022-12-08T07:53:01.121Z,10.700000
2022-12-08T07:54:01.719Z,11.600000
2022-12-08T07:55:00.670Z,11.600000
2022-12-08T07:56:00.328Z,11.600000
2022-12-08T07:57:00.326Z,11.600000
2022-12-08T07:58:02.068Z,11.600000
2022-12-08T07:59:00.321Z,11.600000
2022-12-08T08:00:04.200Z,9.500000
2022-12-08T08:01:00.562Z,9.500000
2022-12-08T08:02:23.012Z,7.700000
2022-12-08T08:03:00.482Z,7.700000
2022-12-08T08:04:00.569Z,7.700000
2022-12-08T08:05:03.818Z,17.000000
2022-12-08T08:06:00.826Z,17.000000
2022-12-08T08:07:00.386Z,12.600000
2022-12-08T08:08:00.977Z,12.600000
2022-12-08T08:09:00.435Z,8.100000
2022-12-08T08:10:05.579Z,8.100000
2022-12-08T08:11:00.616Z,8.100000
2022-12-08T08:12:29.560Z,8.100000
2022-12-08T08:13:00.426Z,8.100000
2022-12-08T08:14:00.911Z,8.100000
2022-12-08T08:15:03.768Z,8.100000
2022-12-08T08:16:00.823Z,8.100000
2022-12-08T08:17:00.613Z,8.300000
2022-12-08T08:18:00.918Z,8.300000
2022-12-08T08:19:00.473Z,8.300000
2022-12-08T08:20:04.119Z,8.300000
2022-12-08T08:21:15.821Z,8.300000
2022-12-08T08:22:00.761Z,9.900000
2022-12-08T08:23:00.497Z,9.900000
2022-12-08T08:24:00.945Z,9.900000
2022-12-08T08:25:03.743Z,9.900000
2022-12-08T08:26:02.160Z,9.900000
2022-12-08T08:27:00.507Z,10.300000
2022-12-08T08:28:00.793Z,10.300000
2022-12-08T08:29:00.516Z,10.300000
2022-12-08T08:30:04.105Z,10.300000
2022-12-08T08:31:00.627Z,10.300000
2022-12-08T08:32:01.071Z,6.900000
2022-12-08T08:33:00.565Z,6.900000
2022-12-08T08:34:00.867Z,9.700000
2022-12-08T08:35:03.731Z,9.700000
2022-12-08T08:36:01.274Z,9.700000
2022-12-08T08:37:00.649Z,9.700000
2022-12-08T08:38:01.092Z,9.700000
2022-12-08T08:39:00.604Z,8.400000
2022-12-08T08:40:04.159Z,8.400000
2022-12-08T08:41:00.586Z,13.000000
2022-12-08T08:42:00.899Z,13.000000
2022-12-08T08:43:00.592Z,13.000000
2022-12-08T08:44:02.166Z,13.000000
2022-12-08T08:45:03.980Z,13.000000
2022-12-08T08:46:01.172Z,13.000000
2022-12-08T08:47:00.614Z,8.300000
2022-12-08T08:48:00.935Z,8.300000
2022-12-08T08:49:00.630Z,8.300000
2022-12-08T08:50:04.520Z,13.500000
2022-12-08T08:51:00.651Z,13.500000
2022-12-08T08:52:01.182Z,13.500000
2022-12-08T08:53:00.648Z,13.500000
2022-12-08T08:54:01.016Z,13.500000
2022-12-08T08:55:04.956Z,8.400000
2022-12-08T08:56:02.893Z,8.400000
2022-12-08T08:57:00.688Z,8.400000
2022-12-08T08:58:02.156Z,9.100000
2022-12-08T08:59:00.708Z,9.100000
2022-12-08T09:00:04.353Z,9.100000
2022-12-08T09:01:00.752Z,9.100000
2022-12-08T09:02:00.865Z,9.100000
2022-12-08T09:03:00.790Z,6.800000
2022-12-08T09:04:01.172Z,6.800000
2022-12-08T09:05:05.583Z,6.800000
2022-12-08T09:06:01.447Z,6.800000
2022-12-08T09:07:00.835Z,8.400000
2022-12-08T09:08:01.844Z,8.400000
2022-12-08T09:09:00.823Z,8.400000
2022-12-08T09:10:06.431Z,8.000000
2022-12-08T09:11:00.788Z,8.000000
2022-12-08T09:12:03.667Z,8.000000
2022-12-08T09:13:00.797Z,5.800000
2022-12-08T09:14:01.821Z,5.800000
2022-12-08T09:15:03.885Z,5.800000
2022-12-08T09:16:02.216Z,5.800000
2022-12-08T09:17:00.834Z,5.800000
2022-12-08T09:18:00.988Z,5.900000
2022-12-08T09:19:00.825Z,5.900000
2022-12-08T09:20:04.922Z,4.000000
2022-12-08T09:21:00.913Z,4.000000
2022-12-08T09:22:00.914Z,4.000000
2022-12-08T09:23:00.861Z,4.000000
2022-12-08T09:24:00.969Z,4.000000
2022-12-08T09:25:04.183Z,4.400000
2022-12-08T09:26:02.104Z,4.400000
2022-12-08T09:27:00.906Z,7.200000
2022-12-08T09:28:00.956Z,7.200000
2022-12-08T09:29:00.888Z,7.200000
2022-12-08T09:30:04.965Z,7.200000
2022-12-08T09:31:00.942Z,7.200000
2022-12-08T09:32:00.980Z,7.200000
2022-12-08T09:33:00.942Z,7.100000
2022-12-08T09:34:00.998Z,7.100000
2022-12-08T09:35:04.176Z,4.800000
2022-12-08T09:36:01.045Z,4.800000
2022-12-08T09:37:00.982Z,5.000000
2022-12-08T09:38:01.021Z,5.000000
2022-12-08T09:39:00.985Z,5.000000
2022-12-08T09:40:04.600Z,6.600000
2022-12-08T09:41:00.998Z,6.600000
2022-12-08T09:42:01.084Z,6.600000
2022-12-08T09:43:00.994Z,6.700000
2022-12-08T09:44:02.142Z,6.700000
2022-12-08T09:45:06.086Z,6.700000
2022-12-08T09:46:01.110Z,6.700000
2022-12-08T09:47:01.053Z,6.700000
2022-12-08T09:48:01.131Z,11.700000
2022-12-08T09:49:01.033Z,11.700000
2022-12-08T09:50:05.039Z,11.700000
2022-12-08T09:51:01.056Z,11.700000
2022-12-08T09:52:01.094Z,11.700000
2022-12-08T09:53:01.091Z,9.400000
2022-12-08T09:54:02.198Z,9.400000
2022-12-08T09:55:03.916Z,9.400000
2022-12-08T09:56:01.134Z,9.400000
2022-12-08T09:57:01.094Z,9.400000
2022-12-08T09:58:01.170Z,9.400000
2022-12-08T09:59:01.100Z,9.400000
2022-12-08T10:00:06.694Z,7.500000
2022-12-08T10:01:01.180Z,7.500000
2022-12-08T10:02:01.385Z,7.500000
2022-12-08T10:03:01.171Z,8.000000
2022-12-08T10:04:00.381Z,8.000000
2022-12-08T10:05:03.386Z,8.000000
2022-12-08T10:06:00.259Z,14.100000
2022-12-08T10:07:00.196Z,14.100000
2022-12-08T10:08:00.284Z,14.100000
2022-12-08T10:09:00.259Z,14.100000
2022-12-08T10:10:04.179Z,7.200000
2022-12-08T10:11:00.233Z,7.200000
2022-12-08T10:12:00.311Z,7.200000
2022-12-08T10:13:00.233Z,11.300000
2022-12-08T10:14:00.302Z,11.300000
2022-12-08T10:15:04.450Z,11.300000
2022-12-08T10:16:00.435Z,11.300000
2022-12-08T10:17:00.373Z,11.300000
2022-12-08T10:18:00.320Z,11.300000
2022-12-08T10:19:00.269Z,8.100000
2022-12-08T10:20:04.365Z,8.100000
2022-12-08T10:21:00.290Z,8.100000
2022-12-08T10:22:00.381Z,8.100000
2022-12-08T10:23:00.322Z,9.400000
2022-12-08T10:24:00.373Z,9.400000
2022-12-08T10:25:03.730Z,9.400000
2022-12-08T10:26:00.419Z,7.800000
2022-12-08T10:27:00.336Z,7.800000
2022-12-08T10:28:00.383Z,7.800000
2022-12-08T10:29:00.344Z,9.300000
2022-12-08T10:30:03.989Z,9.300000
2022-12-08T10:31:00.483Z,9.300000
2022-12-08T10:32:00.464Z,9.300000
2022-12-08T10:33:00.363Z,9.300000
2022-12-08T10:34:00.405Z,9.300000
2022-12-08T10:35:03.777Z,9.300000
2022-12-08T10:36:00.451Z,11.000000
2022-12-08T10:37:00.381Z,11.000000
2022-12-08T10:38:00.467Z,11.000000
2022-12-08T10:39:00.399Z,10.200000
2022-12-08T10:40:04.247Z,10.200000
2022-12-08T10:41:00.473Z,10.200000
2022-12-08T10:42:02.186Z,7.300000
2022-12-08T10:43:00.422Z,7.300000
2022-12-08T10:44:00.508Z,6.100000
2022-12-08T10:45:04.783Z,6.100000
2022-12-08T10:46:00.524Z,6.400000
2022-12-08T10:47:00.641Z,6.400000
2022-12-08T10:48:00.663Z,6.400000
2022-12-08T10:49:00.479Z,6.400000
2022-12-08T10:50:04.391Z,6.400000
2022-12-08T10:51:00.501Z,6.400000
2022-12-08T10:52:00.549Z,6.400000
2022-12-08T10:53:00.543Z,6.400000
2022-12-08T10:54:02.184Z,7.300000
2022-12-08T10:55:05.168Z,7.300000
2022-12-08T10:56:00.614Z,7.300000
2022-12-08T10:57:00.680Z,7.300000
2022-12-08T10:58:00.591Z,7.300000
2022-12-08T10:59:00.580Z,10.300000
2022-12-08T11:00:06.145Z,10.300000
2022-12-08T11:01:00.657Z,10.300000
2022-12-08T11:02:00.802Z,10.300000
2022-12-08T11:03:00.741Z,10.300000
2022-12-08T11:04:00.716Z,10.300000
2022-12-08T11:05:03.799Z,7.300000
2022-12-08T11:06:05.416Z,7.300000
2022-12-08T11:07:00.646Z,6.200000
2022-12-08T11:08:03.698Z,6.200000
2022-12-08T11:09:00.670Z,6.200000
2022-12-08T11:10:04.324Z,6.200000
2022-12-08T11:11:00.681Z,6.200000
2022-12-08T11:12:00.744Z,7.500000
2022-12-08T11:13:00.756Z,7.500000
2022-12-08T11:14:00.775Z,9.600000
2022-12-08T11:15:04.970Z,9.600000
2022-12-08T11:16:00.811Z,9.600000
2022-12-08T11:17:00.799Z,9.600000
2022-12-08T11:18:00.815Z,9.600000
2022-12-08T11:19:00.742Z,5.900000
2022-12-08T11:20:04.723Z,5.900000
2022-12-08T11:21:00.766Z,5.900000
2022-12-08T11:22:02.170Z,6.600000
2022-12-08T11:23:00.745Z,6.600000
2022-12-08T11:24:00.933Z,5.900000
2022-12-08T11:25:04.948Z,5.900000
2022-12-08T11:26:00.840Z,5.900000
2022-12-08T11:27:00.791Z,7.800000
2022-12-08T11:28:00.873Z,7.800000
2022-12-08T11:29:00.829Z,7.800000
2022-12-08T11:30:08.472Z,7.800000
2022-12-08T11:31:00.801Z,7.200000
2022-12-08T11:32:00.974Z,7.200000
2022-12-08T11:33:00.831Z,7.200000
2022-12-08T11:34:00.922Z,7.500000
2022-12-08T11:35:05.174Z,7.500000
2022-12-08T11:36:00.918Z,7.500000
2022-12-08T11:37:00.851Z,7.500000
2022-12-08T11:38:19.839Z,7.500000
2022-12-08T11:39:00.979Z,7.200000
2022-12-08T11:40:04.280Z,7.200000
2022-12-08T11:41:00.874Z,7.200000